Terminal Aerodrome Forecast
Issued by NWS

Home | Current Version | Previous Version | Text Only | Print | Product List | Glossary On
Versions: 1 2 3 4 5 6 7 8 9 10 11 12 13 14
000
FTUS42 KMLB 211139
TAFSFB
TAF
KSFB 211139Z 2112/2212 06007KT P6SM FEW025 SCT050 BKN300
     FM211400 08012G18KT P6SM SCT035 SCT050 BKN300
     FM212300 06007KT P6SM SCT025=

USA.gov is the U.S. government's official web portal to all federal, state and local government web resources and services.